If you wish to contribute or participate in the discussions about articles you are invited to join SKYbrary as a registered user

 Actions

Ciudad Real Central Airport

From SKYbrary Wiki

LERL
Airport
ICAO: LERL – IATA: CQM
Summary
Name Ciudad Real Central Airport
Region Europe
Territory Spain ES.gif
Location , Castilla-La Mancha
Serving Ciudad Real
Type small airport
Coordinates 38° 51' 23.00" N, 3° 58' 12.00" W
Runways
Designator Length Width Surface ROPS
10/28 4000 m13,123.36 ft
60 m196.85 ft
concrete /


METAR
Observation LERL 220830Z 00000KT 8000 FEW045 09/07 Q1013
Station Aeropuerto Central Ciudad Real
Date/Time 22 October 2019 08:30:00
Wind direction
Wind speed 00 kts
Lowest cloud amount few clouds
Temperature 9°C
Dew point 7°C
Humidity 87%
QNH 1013 hPa
Weather condition n/a